createdAt,value
2022-12-26T00:01:16.000Z,100
2022-12-26T00:02:42.000Z,100
2022-12-26T00:04:49.000Z,100
2022-12-26T00:06:20.000Z,100
2022-12-26T00:08:26.000Z,100
2022-12-26T00:09:52.000Z,100
2022-12-26T00:11:58.000Z,99
2022-12-26T00:13:25.000Z,99
2022-12-26T00:15:47.000Z,99
2022-12-26T00:17:13.000Z,99
2022-12-26T00:19:19.000Z,99
2022-12-26T00:22:10.000Z,99
2022-12-26T00:23:37.000Z,99
2022-12-26T00:25:43.000Z,99
2022-12-26T00:27:09.000Z,99
2022-12-26T00:29:15.000Z,99
2022-12-26T00:30:42.000Z,99
2022-12-26T00:32:48.000Z,99
2022-12-26T00:34:15.000Z,98
2022-12-26T00:36:21.000Z,98
2022-12-26T00:37:47.000Z,98
2022-12-26T00:39:53.000Z,98
2022-12-26T00:41:20.000Z,98
2022-12-26T00:43:26.000Z,98
2022-12-26T00:44:52.000Z,98
2022-12-26T00:46:59.000Z,98
2022-12-26T00:48:25.000Z,98
2022-12-26T00:50:31.000Z,98
2022-12-26T00:52:01.000Z,99
2022-12-26T00:54:07.000Z,99
2022-12-26T00:55:34.000Z,99
2022-12-26T00:57:40.000Z,99
2022-12-26T01:00:31.000Z,99
2022-12-26T01:01:58.000Z,99
2022-12-26T01:04:04.000Z,99
2022-12-26T01:05:31.000Z,99
2022-12-26T01:07:37.000Z,99
2022-12-26T01:09:50.000Z,98
2022-12-26T01:11:56.000Z,99
2022-12-26T01:13:23.000Z,98
2022-12-26T01:15:29.000Z,98
2022-12-26T01:16:55.000Z,98
2022-12-26T01:19:02.000Z,98
2022-12-26T01:20:28.000Z,98
2022-12-26T01:22:34.000Z,98
2022-12-26T01:24:01.000Z,99
2022-12-26T01:26:07.000Z,99
2022-12-26T01:27:46.000Z,99
2022-12-26T01:29:52.000Z,99
2022-12-26T01:31:18.000Z,98
2022-12-26T01:33:24.000Z,99
2022-12-26T01:34:51.000Z,98
2022-12-26T01:36:57.000Z,98
2022-12-26T01:39:49.000Z,98
2022-12-26T01:41:15.000Z,97
2022-12-26T01:43:21.000Z,97
2022-12-26T01:44:48.000Z,98
2022-12-26T01:46:54.000Z,97
2022-12-26T01:48:20.000Z,97
2022-12-26T01:50:27.000Z,97
2022-12-26T01:51:53.000Z,97
2022-12-26T01:53:59.000Z,97
2022-12-26T01:56:08.000Z,98
2022-12-26T01:58:14.000Z,98
2022-12-26T01:59:41.000Z,98
2022-12-26T02:01:47.000Z,98
2022-12-26T02:03:14.000Z,98
2022-12-26T02:05:20.000Z,97
2022-12-26T02:06:46.000Z,97
2022-12-26T02:08:52.000Z,97
2022-12-26T02:10:19.000Z,97
2022-12-26T02:12:25.000Z,97
2022-12-26T02:14:04.000Z,96
2022-12-26T02:16:10.000Z,96
2022-12-26T02:19:01.000Z,96
2022-12-26T02:20:28.000Z,97
2022-12-26T02:22:34.000Z,96
2022-12-26T02:24:00.000Z,96
2022-12-26T02:26:07.000Z,96
2022-12-26T02:27:33.000Z,96
2022-12-26T02:29:39.000Z,96
2022-12-26T02:31:06.000Z,97
2022-12-26T02:33:12.000Z,96
2022-12-26T02:34:38.000Z,97
2022-12-26T02:36:45.000Z,97
2022-12-26T02:38:11.000Z,97
2022-12-26T02:40:17.000Z,97
2022-12-26T02:41:44.000Z,96
2022-12-26T02:43:50.000Z,96
2022-12-26T02:45:16.000Z,97
2022-12-26T02:47:23.000Z,96
2022-12-26T02:48:49.000Z,97
2022-12-26T02:50:55.000Z,97
2022-12-26T02:52:22.000Z,96
2022-12-26T02:54:28.000Z,96
2022-12-26T02:57:19.000Z,96
2022-12-26T02:58:45.000Z,96
2022-12-26T03:00:51.000Z,96
2022-12-26T03:02:18.000Z,95
2022-12-26T03:04:25.000Z,95
2022-12-26T03:05:51.000Z,95
2022-12-26T03:07:57.000Z,95
2022-12-26T03:09:24.000Z,95
2022-12-26T03:11:30.000Z,95
2022-12-26T03:12:56.000Z,95
2022-12-26T03:15:03.000Z,95
2022-12-26T03:16:29.000Z,95
2022-12-26T03:18:35.000Z,95
2022-12-26T03:20:26.000Z,95
2022-12-26T03:22:32.000Z,94
2022-12-26T03:23:59.000Z,94
2022-12-26T03:26:05.000Z,95
2022-12-26T03:27:31.000Z,95
2022-12-26T03:29:37.000Z,95
2022-12-26T03:31:04.000Z,96
2022-12-26T03:33:10.000Z,95
2022-12-26T03:36:01.000Z,95
2022-12-26T03:37:28.000Z,95
2022-12-26T03:39:55.000Z,95
2022-12-26T03:41:21.000Z,95
2022-12-26T03:43:28.000Z,95
2022-12-26T03:44:54.000Z,95
2022-12-26T03:47:00.000Z,94
2022-12-26T03:48:27.000Z,94
2022-12-26T03:50:33.000Z,95
2022-12-26T03:51:59.000Z,95
2022-12-26T03:54:06.000Z,95
2022-12-26T03:55:32.000Z,95
2022-12-26T03:57:38.000Z,95
2022-12-26T03:59:05.000Z,95
2022-12-26T04:01:11.000Z,95
2022-12-26T04:02:37.000Z,95
2022-12-26T04:04:44.000Z,96
2022-12-26T04:06:10.000Z,96
2022-12-26T04:08:17.000Z,95
2022-12-26T04:09:45.000Z,95
2022-12-26T04:11:51.000Z,95
2022-12-26T04:14:42.000Z,95
2022-12-26T04:16:09.000Z,95
2022-12-26T04:18:15.000Z,95
2022-12-26T04:19:41.000Z,95
2022-12-26T04:21:47.000Z,95
2022-12-26T04:23:14.000Z,95
2022-12-26T04:25:20.000Z,95
2022-12-26T04:27:17.000Z,95
2022-12-26T04:29:23.000Z,95
2022-12-26T04:30:49.000Z,95
2022-12-26T04:32:55.000Z,96
2022-12-26T04:34:22.000Z,95
2022-12-26T04:36:28.000Z,95
2022-12-26T04:37:55.000Z,96
2022-12-26T04:40:01.000Z,96
2022-12-26T04:41:27.000Z,96
2022-12-26T04:43:33.000Z,96
2022-12-26T04:45:17.000Z,96
2022-12-26T04:47:23.000Z,96
2022-12-26T04:48:50.000Z,96
2022-12-26T04:50:56.000Z,96
2022-12-26T04:53:47.000Z,96
2022-12-26T04:55:14.000Z,96
2022-12-26T04:57:20.000Z,96
2022-12-26T04:58:46.000Z,96
2022-12-26T05:00:52.000Z,96
2022-12-26T05:02:19.000Z,96
2022-12-26T05:04:25.000Z,96
2022-12-26T05:05:52.000Z,96
2022-12-26T05:07:58.000Z,96
2022-12-26T05:09:24.000Z,96
2022-12-26T05:11:30.000Z,96
2022-12-26T05:12:57.000Z,96
2022-12-26T05:15:03.000Z,97
2022-12-26T05:16:30.000Z,96
2022-12-26T05:18:36.000Z,97
2022-12-26T05:20:02.000Z,97
2022-12-26T05:22:09.000Z,97
2022-12-26T05:23:35.000Z,96
2022-12-26T05:25:41.000Z,96
2022-12-26T05:27:08.000Z,95
2022-12-26T05:29:14.000Z,95
2022-12-26T05:32:05.000Z,95
2022-12-26T05:33:31.000Z,95
2022-12-26T05:35:38.000Z,95
2022-12-26T05:37:04.000Z,94
2022-12-26T05:39:10.000Z,94
2022-12-26T05:40:37.000Z,94
2022-12-26T05:42:43.000Z,94
2022-12-26T05:44:09.000Z,94
2022-12-26T05:46:15.000Z,94
2022-12-26T05:47:42.000Z,94
2022-12-26T05:49:55.000Z,94
2022-12-26T05:51:22.000Z,94
2022-12-26T05:53:28.000Z,94
2022-12-26T05:54:54.000Z,94
2022-12-26T05:57:01.000Z,95
2022-12-26T05:58:27.000Z,95
2022-12-26T06:00:33.000Z,95
2022-12-26T06:02:00.000Z,95
2022-12-26T06:04:06.000Z,95
2022-12-26T06:05:33.000Z,95
2022-12-26T06:07:39.000Z,95
2022-12-26T06:10:30.000Z,95
2022-12-26T06:11:57.000Z,95
2022-12-26T06:14:03.000Z,95
2022-12-26T06:15:29.000Z,95
2022-12-26T06:17:35.000Z,95
2022-12-26T06:19:02.000Z,95
2022-12-26T06:21:08.000Z,95
2022-12-26T06:22:35.000Z,95
2022-12-26T06:24:41.000Z,94
2022-12-26T06:26:07.000Z,94
2022-12-26T06:28:13.000Z,94
2022-12-26T06:29:40.000Z,95
2022-12-26T06:31:46.000Z,95
2022-12-26T06:33:13.000Z,95
2022-12-26T06:35:19.000Z,95
2022-12-26T06:36:45.000Z,95
2022-12-26T06:38:52.000Z,95
2022-12-26T06:40:18.000Z,95
2022-12-26T06:42:24.000Z,95
2022-12-26T06:43:51.000Z,95
2022-12-26T06:45:57.000Z,95
2022-12-26T06:48:48.000Z,95
2022-12-26T06:50:15.000Z,95
2022-12-26T06:52:21.000Z,95
2022-12-26T06:53:47.000Z,94
2022-12-26T06:55:53.000Z,95
2022-12-26T06:57:20.000Z,94
2022-12-26T06:59:26.000Z,95
2022-12-26T07:00:52.000Z,95
2022-12-26T07:02:58.000Z,95
2022-12-26T07:04:25.000Z,95
2022-12-26T07:06:31.000Z,95
2022-12-26T07:07:58.000Z,95
2022-12-26T07:10:04.000Z,95
2022-12-26T07:11:30.000Z,95
2022-12-26T07:13:36.000Z,95
2022-12-26T07:15:03.000Z,95
2022-12-26T07:17:09.000Z,95
2022-12-26T07:18:36.000Z,95
2022-12-26T07:20:42.000Z,95
2022-12-26T07:22:08.000Z,96
2022-12-26T07:24:14.000Z,96
2022-12-26T07:27:05.000Z,96
2022-12-26T07:28:32.000Z,96
2022-12-26T07:30:38.000Z,96
2022-12-26T07:32:05.000Z,97
2022-12-26T07:34:11.000Z,97
2022-12-26T07:35:37.000Z,98
2022-12-26T07:37:43.000Z,97
2022-12-26T07:39:10.000Z,98
2022-12-26T07:41:16.000Z,98
2022-12-26T07:42:42.000Z,98
2022-12-26T07:44:49.000Z,99
2022-12-26T07:46:15.000Z,99
2022-12-26T07:48:21.000Z,99
2022-12-26T07:49:48.000Z,100
2022-12-26T07:51:54.000Z,100
2022-12-26T07:53:21.000Z,100
2022-12-26T07:55:27.000Z,100
2022-12-26T07:56:53.000Z,100
2022-12-26T07:59:21.000Z,100
2022-12-26T08:00:47.000Z,100
2022-12-26T08:02:53.000Z,100
2022-12-26T08:05:45.000Z,100
2022-12-26T08:07:12.000Z,100
2022-12-26T08:09:18.000Z,100
2022-12-26T08:10:44.000Z,100
2022-12-26T08:12:50.000Z,100
2022-12-26T08:14:17.000Z,100
2022-12-26T08:16:23.000Z,100
2022-12-26T08:17:50.000Z,100
2022-12-26T08:19:56.000Z,100
2022-12-26T08:21:23.000Z,100
2022-12-26T08:23:29.000Z,100
2022-12-26T08:24:55.000Z,100
2022-12-26T08:27:01.000Z,100
2022-12-26T08:28:28.000Z,100
2022-12-26T08:30:34.000Z,100
2022-12-26T08:32:01.000Z,100
2022-12-26T08:34:07.000Z,99
2022-12-26T08:35:33.000Z,100
2022-12-26T08:37:39.000Z,100
2022-12-26T08:39:06.000Z,100
2022-12-26T08:41:12.000Z,100
2022-12-26T08:44:03.000Z,100
2022-12-26T08:45:53.000Z,99
2022-12-26T08:47:59.000Z,100
2022-12-26T08:49:27.000Z,100
2022-12-26T08:51:33.000Z,99
2022-12-26T08:52:59.000Z,100
2022-12-26T08:55:05.000Z,99
2022-12-26T08:56:32.000Z,98
2022-12-26T08:58:38.000Z,99
2022-12-26T09:00:04.000Z,99
2022-12-26T09:02:10.000Z,99
2022-12-26T09:03:37.000Z,98
2022-12-26T09:05:43.000Z,98
2022-12-26T09:07:10.000Z,98
2022-12-26T09:09:16.000Z,98
2022-12-26T09:10:43.000Z,97
2022-12-26T09:12:49.000Z,98
2022-12-26T09:14:15.000Z,99
2022-12-26T09:16:21.000Z,99
2022-12-26T09:17:48.000Z,97
2022-12-26T09:19:54.000Z,97
2022-12-26T09:22:45.000Z,98
2022-12-26T09:24:12.000Z,97
2022-12-26T09:26:18.000Z,98
2022-12-26T09:27:44.000Z,98
2022-12-26T09:29:50.000Z,98
2022-12-26T09:31:17.000Z,98
2022-12-26T09:33:23.000Z,98
2022-12-26T09:34:50.000Z,97
2022-12-26T09:36:56.000Z,98
2022-12-26T09:38:22.000Z,98
2022-12-26T09:40:28.000Z,97
2022-12-26T09:41:55.000Z,97
2022-12-26T09:44:01.000Z,98
2022-12-26T09:45:28.000Z,97
2022-12-26T09:47:34.000Z,97
2022-12-26T09:49:00.000Z,96
2022-12-26T09:51:06.000Z,97
2022-12-26T09:52:33.000Z,96
2022-12-26T09:54:39.000Z,96
2022-12-26T09:56:05.000Z,97
2022-12-26T09:58:12.000Z,97
2022-12-26T10:01:03.000Z,97
2022-12-26T10:02:29.000Z,97
2022-12-26T10:04:36.000Z,98
2022-12-26T10:06:02.000Z,98
2022-12-26T10:08:08.000Z,98
2022-12-26T10:09:35.000Z,98
2022-12-26T10:11:41.000Z,98
2022-12-26T10:13:07.000Z,98
2022-12-26T10:15:14.000Z,98
2022-12-26T10:16:40.000Z,98
2022-12-26T10:18:46.000Z,98
2022-12-26T10:20:13.000Z,98
2022-12-26T10:22:19.000Z,98
2022-12-26T10:23:45.000Z,97
2022-12-26T10:25:51.000Z,97
2022-12-26T10:27:18.000Z,97
2022-12-26T10:29:24.000Z,97
2022-12-26T10:30:50.000Z,96
2022-12-26T10:32:57.000Z,97
2022-12-26T10:34:23.000Z,97
2022-12-26T10:36:29.000Z,96
2022-12-26T10:39:20.000Z,97
2022-12-26T10:40:47.000Z,97
2022-12-26T10:42:53.000Z,96
2022-12-26T10:44:19.000Z,96
2022-12-26T10:46:33.000Z,96
2022-12-26T10:48:00.000Z,96
2022-12-26T10:50:06.000Z,96
2022-12-26T10:51:32.000Z,96
2022-12-26T10:53:38.000Z,96
2022-12-26T10:55:05.000Z,96
2022-12-26T10:57:37.000Z,96
2022-12-26T10:59:03.000Z,96
2022-12-26T11:01:09.000Z,95
2022-12-26T11:02:36.000Z,95
2022-12-26T11:04:42.000Z,95
2022-12-26T11:06:47.000Z,95
2022-12-26T11:08:54.000Z,95
2022-12-26T11:10:20.000Z,95
2022-12-26T11:12:26.000Z,95
2022-12-26T11:13:53.000Z,94
2022-12-26T11:16:07.000Z,95
2022-12-26T11:18:59.000Z,95
2022-12-26T11:20:25.000Z,95
2022-12-26T11:22:31.000Z,94
2022-12-26T11:23:58.000Z,95
2022-12-26T11:26:04.000Z,94
2022-12-26T11:27:30.000Z,94
2022-12-26T11:29:36.000Z,94
2022-12-26T11:31:03.000Z,94
2022-12-26T11:33:09.000Z,94
2022-12-26T11:34:41.000Z,94
2022-12-26T11:36:47.000Z,94
2022-12-26T11:38:14.000Z,94
2022-12-26T11:40:20.000Z,94
2022-12-26T11:41:46.000Z,95
2022-12-26T11:43:52.000Z,94
2022-12-26T11:45:19.000Z,94
2022-12-26T11:47:25.000Z,95
2022-12-26T11:48:52.000Z,94
2022-12-26T11:50:58.000Z,94
2022-12-26T11:52:24.000Z,94
2022-12-26T11:54:30.000Z,94
2022-12-26T11:57:22.000Z,94
2022-12-26T11:58:48.000Z,94
2022-12-26T12:00:55.000Z,94
2022-12-26T12:02:21.000Z,94
2022-12-26T12:04:27.000Z,93
2022-12-26T12:05:54.000Z,93
2022-12-26T12:08:00.000Z,93
2022-12-26T12:09:27.000Z,92
2022-12-26T12:11:33.000Z,93
2022-12-26T12:13:00.000Z,92
2022-12-26T12:15:06.000Z,93
2022-12-26T12:16:32.000Z,93
2022-12-26T12:18:39.000Z,92
2022-12-26T12:20:05.000Z,92
2022-12-26T12:22:11.000Z,92
2022-12-26T12:23:38.000Z,93
2022-12-26T12:25:44.000Z,92
2022-12-26T12:27:10.000Z,91
2022-12-26T12:29:17.000Z,91
2022-12-26T12:30:43.000Z,92
2022-12-26T12:32:50.000Z,92
2022-12-26T12:35:48.000Z,91
2022-12-26T12:37:14.000Z,90
2022-12-26T12:39:20.000Z,90
2022-12-26T12:40:47.000Z,91
2022-12-26T12:42:53.000Z,91
2022-12-26T12:44:19.000Z,91
2022-12-26T12:46:26.000Z,91
2022-12-26T12:47:52.000Z,91
2022-12-26T12:49:58.000Z,91
2022-12-26T12:51:25.000Z,91
2022-12-26T12:53:31.000Z,90
2022-12-26T12:54:57.000Z,91
2022-12-26T12:57:04.000Z,91
2022-12-26T12:58:30.000Z,91
2022-12-26T13:00:36.000Z,91
2022-12-26T13:02:03.000Z,91
2022-12-26T13:04:16.000Z,91
2022-12-26T13:05:42.000Z,91
2022-12-26T13:07:48.000Z,92
2022-12-26T13:09:15.000Z,93
2022-12-26T13:11:21.000Z,92
2022-12-26T13:14:12.000Z,92
2022-12-26T13:15:39.000Z,93
2022-12-26T13:17:45.000Z,92
2022-12-26T13:19:11.000Z,93
2022-12-26T13:21:17.000Z,93
2022-12-26T13:22:44.000Z,93
2022-12-26T13:24:50.000Z,92
2022-12-26T13:26:17.000Z,93
2022-12-26T13:28:23.000Z,92
2022-12-26T13:29:49.000Z,93
2022-12-26T13:31:55.000Z,92
2022-12-26T13:33:22.000Z,92
2022-12-26T13:35:28.000Z,92
2022-12-26T13:36:54.000Z,92
2022-12-26T13:39:01.000Z,92
2022-12-26T13:40:27.000Z,92
2022-12-26T13:42:33.000Z,93
2022-12-26T13:44:00.000Z,93
2022-12-26T13:46:07.000Z,91
2022-12-26T13:47:33.000Z,92
2022-12-26T13:49:40.000Z,91
2022-12-26T13:52:30.000Z,91
2022-12-26T13:53:57.000Z,90
2022-12-26T13:56:03.000Z,92
2022-12-26T13:57:29.000Z,91
2022-12-26T13:59:35.000Z,90
2022-12-26T14:01:02.000Z,90
2022-12-26T14:03:08.000Z,91
2022-12-26T14:04:45.000Z,91
2022-12-26T14:06:51.000Z,90
2022-12-26T14:08:18.000Z,90
2022-12-26T14:10:24.000Z,90
2022-12-26T14:11:51.000Z,91
2022-12-26T14:13:57.000Z,92
2022-12-26T14:15:23.000Z,92
2022-12-26T14:17:29.000Z,93
2022-12-26T14:18:56.000Z,93
2022-12-26T14:21:02.000Z,94
2022-12-26T14:22:29.000Z,95
2022-12-26T14:24:35.000Z,95
2022-12-26T14:26:01.000Z,95
2022-12-26T14:28:07.000Z,96
2022-12-26T14:30:58.000Z,96
2022-12-26T14:32:25.000Z,96
2022-12-26T14:34:31.000Z,96
2022-12-26T14:35:58.000Z,96
2022-12-26T14:38:04.000Z,96
2022-12-26T14:39:30.000Z,96
2022-12-26T14:41:37.000Z,96
2022-12-26T14:43:03.000Z,96
2022-12-26T14:45:09.000Z,96
2022-12-26T14:46:36.000Z,96
2022-12-26T14:48:42.000Z,96
2022-12-26T14:50:08.000Z,96
2022-12-26T14:52:15.000Z,96
2022-12-26T14:53:41.000Z,96
2022-12-26T14:55:47.000Z,96
2022-12-26T14:57:14.000Z,96
2022-12-26T14:59:20.000Z,96
2022-12-26T15:00:46.000Z,96
2022-12-26T15:02:53.000Z,97
2022-12-26T15:04:19.000Z,97
2022-12-26T15:06:25.000Z,97
2022-12-26T15:09:17.000Z,97
2022-12-26T15:10:43.000Z,96
2022-12-26T15:12:49.000Z,96
2022-12-26T15:14:24.000Z,96
2022-12-26T15:16:31.000Z,96
2022-12-26T15:17:57.000Z,96
2022-12-26T15:20:03.000Z,96
2022-12-26T15:21:30.000Z,96
2022-12-26T15:23:36.000Z,97
2022-12-26T15:25:03.000Z,97
2022-12-26T15:27:26.000Z,98
2022-12-26T15:28:52.000Z,99
2022-12-26T15:30:59.000Z,99
2022-12-26T15:32:25.000Z,99
2022-12-26T15:34:31.000Z,99
2022-12-26T15:35:58.000Z,100
2022-12-26T15:38:09.000Z,100
2022-12-26T15:39:36.000Z,99
2022-12-26T15:41:42.000Z,100
2022-12-26T15:43:08.000Z,99
2022-12-26T15:45:14.000Z,98
2022-12-26T15:48:06.000Z,98
2022-12-26T15:49:32.000Z,97
2022-12-26T15:51:38.000Z,98
2022-12-26T15:53:05.000Z,97
2022-12-26T15:55:11.000Z,97
2022-12-26T15:56:37.000Z,97
2022-12-26T15:58:44.000Z,98
2022-12-26T16:00:10.000Z,98
2022-12-26T16:02:16.000Z,98
2022-12-26T16:03:43.000Z,98
2022-12-26T16:05:49.000Z,99
2022-12-26T16:07:16.000Z,99
2022-12-26T16:09:22.000Z,99
2022-12-26T16:10:48.000Z,99
2022-12-26T16:13:01.000Z,99
2022-12-26T16:14:28.000Z,99
2022-12-26T16:16:34.000Z,100
2022-12-26T16:18:01.000Z,100
2022-12-26T16:20:07.000Z,100
2022-12-26T16:21:33.000Z,100
2022-12-26T16:23:39.000Z,100
2022-12-26T16:26:30.000Z,100
2022-12-26T16:27:57.000Z,100
2022-12-26T16:30:03.000Z,100
2022-12-26T16:31:38.000Z,100
2022-12-26T16:33:44.000Z,100
2022-12-26T16:35:10.000Z,100
2022-12-26T16:37:16.000Z,100
2022-12-26T16:38:43.000Z,100
2022-12-26T16:40:49.000Z,100
2022-12-26T16:42:15.000Z,100
2022-12-26T16:44:22.000Z,100
2022-12-26T16:45:56.000Z,100
2022-12-26T16:48:02.000Z,100
2022-12-26T16:49:29.000Z,100
2022-12-26T16:51:35.000Z,100
2022-12-26T16:53:01.000Z,100
2022-12-26T16:55:07.000Z,100
2022-12-26T16:56:34.000Z,100
2022-12-26T16:58:40.000Z,100
2022-12-26T17:00:06.000Z,96
2022-12-26T17:02:12.000Z,95
2022-12-26T17:05:04.000Z,93
2022-12-26T17:06:30.000Z,93
2022-12-26T17:08:36.000Z,93
2022-12-26T17:10:03.000Z,93
2022-12-26T17:12:13.000Z,95
2022-12-26T17:13:40.000Z,95
2022-12-26T17:15:46.000Z,95
2022-12-26T17:17:13.000Z,97
2022-12-26T17:19:19.000Z,97
2022-12-26T17:20:45.000Z,97
2022-12-26T17:22:51.000Z,97
2022-12-26T17:24:18.000Z,97
2022-12-26T17:26:24.000Z,97
2022-12-26T17:27:51.000Z,98
2022-12-26T17:29:57.000Z,98
2022-12-26T17:31:23.000Z,98
2022-12-26T17:33:30.000Z,99
2022-12-26T17:34:56.000Z,99
2022-12-26T17:37:02.000Z,98
2022-12-26T17:38:46.000Z,99
2022-12-26T17:40:52.000Z,99
2022-12-26T17:43:43.000Z,99
2022-12-26T17:45:10.000Z,99
2022-12-26T17:47:16.000Z,99
2022-12-26T17:48:43.000Z,99
2022-12-26T17:50:49.000Z,99
2022-12-26T17:52:15.000Z,99
2022-12-26T17:54:21.000Z,99
2022-12-26T17:55:48.000Z,99
2022-12-26T17:57:54.000Z,99
2022-12-26T17:59:21.000Z,99
2022-12-26T18:01:27.000Z,99
2022-12-26T18:02:54.000Z,99
2022-12-26T18:05:00.000Z,99
2022-12-26T18:06:27.000Z,99
2022-12-26T18:08:33.000Z,99
2022-12-26T18:09:59.000Z,99
2022-12-26T18:12:05.000Z,99
2022-12-26T18:13:32.000Z,100
2022-12-26T18:15:38.000Z,99
2022-12-26T18:17:04.000Z,99
2022-12-26T18:19:11.000Z,98
2022-12-26T18:22:02.000Z,99
2022-12-26T18:23:29.000Z,99
2022-12-26T18:25:35.000Z,99
2022-12-26T18:27:01.000Z,99
2022-12-26T18:29:08.000Z,99
2022-12-26T18:30:34.000Z,99
2022-12-26T18:32:40.000Z,100
2022-12-26T18:34:07.000Z,99
2022-12-26T18:36:13.000Z,99
2022-12-26T18:37:39.000Z,100
2022-12-26T18:39:45.000Z,100
2022-12-26T18:41:12.000Z,99
2022-12-26T18:43:18.000Z,99
2022-12-26T18:44:45.000Z,99
2022-12-26T18:46:51.000Z,99
2022-12-26T18:48:17.000Z,99
2022-12-26T18:50:23.000Z,99
2022-12-26T18:51:50.000Z,99
2022-12-26T18:53:56.000Z,99
2022-12-26T18:55:22.000Z,99
2022-12-26T18:57:29.000Z,99
2022-12-26T19:00:20.000Z,99
2022-12-26T19:01:46.000Z,98
2022-12-26T19:03:53.000Z,98
2022-12-26T19:05:19.000Z,98
2022-12-26T19:07:25.000Z,98
2022-12-26T19:08:52.000Z,98
2022-12-26T19:10:58.000Z,98
2022-12-26T19:12:24.000Z,98
2022-12-26T19:14:31.000Z,99
2022-12-26T19:15:57.000Z,98
2022-12-26T19:18:03.000Z,98
2022-12-26T19:19:30.000Z,98
2022-12-26T19:21:36.000Z,98
2022-12-26T19:23:02.000Z,98
2022-12-26T19:25:08.000Z,98
2022-12-26T19:26:35.000Z,97
2022-12-26T19:28:41.000Z,97
2022-12-26T19:30:07.000Z,97
2022-12-26T19:32:14.000Z,97
2022-12-26T19:33:40.000Z,96
2022-12-26T19:35:46.000Z,97
2022-12-26T19:38:37.000Z,97
2022-12-26T19:40:04.000Z,97
2022-12-26T19:42:10.000Z,97
2022-12-26T19:43:37.000Z,98
2022-12-26T19:45:43.000Z,98
2022-12-26T19:47:09.000Z,98
2022-12-26T19:49:18.000Z,98
2022-12-26T19:50:45.000Z,97
2022-12-26T19:52:51.000Z,96
2022-12-26T19:54:17.000Z,97
2022-12-26T19:56:24.000Z,98
2022-12-26T19:57:50.000Z,97
2022-12-26T19:59:56.000Z,97
2022-12-26T20:01:23.000Z,96
2022-12-26T20:03:29.000Z,95
2022-12-26T20:04:55.000Z,95
2022-12-26T20:07:02.000Z,94
2022-12-26T20:08:28.000Z,95
2022-12-26T20:10:34.000Z,95
2022-12-26T20:12:01.000Z,96
2022-12-26T20:14:07.000Z,96
2022-12-26T20:16:58.000Z,96
2022-12-26T20:18:34.000Z,96
2022-12-26T20:20:40.000Z,96
2022-12-26T20:22:07.000Z,96
2022-12-26T20:24:13.000Z,97
2022-12-26T20:25:39.000Z,97
2022-12-26T20:27:45.000Z,97
2022-12-26T20:29:12.000Z,97
2022-12-26T20:31:18.000Z,97
2022-12-26T20:32:45.000Z,97
2022-12-26T20:34:51.000Z,97
2022-12-26T20:36:17.000Z,97
2022-12-26T20:38:23.000Z,97
2022-12-26T20:39:50.000Z,97
2022-12-26T20:41:56.000Z,96
2022-12-26T20:43:23.000Z,97
2022-12-26T20:45:29.000Z,97
2022-12-26T20:46:55.000Z,97
2022-12-26T20:49:01.000Z,97
2022-12-26T20:50:28.000Z,93
2022-12-26T20:52:34.000Z,94
2022-12-26T20:55:25.000Z,94
2022-12-26T20:56:51.000Z,94
2022-12-26T20:58:58.000Z,94
2022-12-26T21:00:24.000Z,95
2022-12-26T21:02:30.000Z,91
2022-12-26T21:03:57.000Z,89
2022-12-26T21:06:03.000Z,90
2022-12-26T21:07:30.000Z,91
2022-12-26T21:09:36.000Z,91
2022-12-26T21:11:12.000Z,91
2022-12-26T21:13:18.000Z,91
2022-12-26T21:14:44.000Z,90
2022-12-26T21:16:50.000Z,91
2022-12-26T21:18:17.000Z,91
2022-12-26T21:20:23.000Z,92
2022-12-26T21:21:49.000Z,92
2022-12-26T21:23:56.000Z,92
2022-12-26T21:25:22.000Z,92
2022-12-26T21:27:28.000Z,93
2022-12-26T21:28:55.000Z,93
2022-12-26T21:31:01.000Z,93
2022-12-26T21:33:52.000Z,78
2022-12-26T21:35:19.000Z,76
2022-12-26T21:37:25.000Z,74
2022-12-26T21:38:51.000Z,69
2022-12-26T21:40:57.000Z,68
2022-12-26T21:42:24.000Z,72
2022-12-26T21:44:30.000Z,75
2022-12-26T21:45:56.000Z,72
2022-12-26T21:48:07.000Z,73
2022-12-26T21:49:33.000Z,74
2022-12-26T21:51:39.000Z,76
2022-12-26T21:53:06.000Z,76
2022-12-26T21:55:12.000Z,77
2022-12-26T21:56:38.000Z,78
2022-12-26T21:58:45.000Z,78
2022-12-26T22:00:11.000Z,79
2022-12-26T22:02:17.000Z,76
2022-12-26T22:03:44.000Z,80
2022-12-26T22:05:50.000Z,78
2022-12-26T22:07:17.000Z,79
2022-12-26T22:09:23.000Z,80
2022-12-26T22:12:14.000Z,80
2022-12-26T22:13:41.000Z,81
2022-12-26T22:15:47.000Z,80
2022-12-26T22:17:13.000Z,82
2022-12-26T22:19:19.000Z,81
2022-12-26T22:20:46.000Z,81
2022-12-26T22:22:52.000Z,81
2022-12-26T22:24:19.000Z,81
2022-12-26T22:26:25.000Z,82
2022-12-26T22:27:51.000Z,82
2022-12-26T22:29:57.000Z,82
2022-12-26T22:31:24.000Z,83
2022-12-26T22:33:30.000Z,83
2022-12-26T22:34:57.000Z,82
2022-12-26T22:37:03.000Z,83
2022-12-26T22:38:29.000Z,83
2022-12-26T22:40:35.000Z,84
2022-12-26T22:42:02.000Z,85
2022-12-26T22:44:08.000Z,85
2022-12-26T22:45:35.000Z,85
2022-12-26T22:47:41.000Z,85
2022-12-26T22:50:32.000Z,85
2022-12-26T22:51:58.000Z,85
2022-12-26T22:54:05.000Z,86
2022-12-26T22:55:31.000Z,87
2022-12-26T22:57:37.000Z,87
2022-12-26T22:59:04.000Z,87
2022-12-26T23:01:10.000Z,87
2022-12-26T23:02:37.000Z,87
2022-12-26T23:04:43.000Z,87
2022-12-26T23:06:09.000Z,87
2022-12-26T23:08:15.000Z,87
2022-12-26T23:09:42.000Z,87
2022-12-26T23:11:48.000Z,88
2022-12-26T23:13:15.000Z,88
2022-12-26T23:15:21.000Z,88
2022-12-26T23:16:47.000Z,89
2022-12-26T23:18:53.000Z,88
2022-12-26T23:20:20.000Z,89
2022-12-26T23:22:26.000Z,89
2022-12-26T23:23:53.000Z,90
2022-12-26T23:25:59.000Z,90
2022-12-26T23:28:50.000Z,90
2022-12-26T23:30:17.000Z,90
2022-12-26T23:32:23.000Z,90
2022-12-26T23:33:49.000Z,91
2022-12-26T23:35:55.000Z,91
2022-12-26T23:37:22.000Z,91
2022-12-26T23:39:28.000Z,91
2022-12-26T23:40:54.000Z,91
2022-12-26T23:43:00.000Z,92
2022-12-26T23:44:27.000Z,92
2022-12-26T23:46:33.000Z,92
2022-12-26T23:47:59.000Z,92
2022-12-26T23:50:06.000Z,92
2022-12-26T23:51:32.000Z,92
2022-12-26T23:53:38.000Z,92
2022-12-26T23:55:05.000Z,92
2022-12-26T23:57:11.000Z,92
2022-12-26T23:58:37.000Z,92
